A- A+

nearest Ust-Kamennogorsk airportNaples International airportEl Dorado International airportTarbes-Lourdes-Pyrénées airportPalm Springs International airportDaniel K Inouye International airport

Airport information, from map to hotels via aeronautical information. And the aeronautical weather for the pilots with current weather and short-term forecasts with METAR (METeorological Aerodrome Report, observation message of meteorological conditions for aviation) and TAF (Terminal Aerodrome Forecast: short-term forecast message of meteorological conditions for aviation ). And other resources such as VAC (Visual Approach Chart) to prepare flights.

Rosamond Skypark airport at Rosamond (USA)

Rosamond Skypark airport is located near Rosamond, with Rosamond at 3mi, Antelope Acres at 9mi, Lancaster at 13mi, Mojave at 13mi, Quartz Hill at 16mi, Edwards Air Force Base at 16mi, Leona Valley at 18mi, Desert View Highlands at 20mi, Green Valley at 21mi, Palmdale at 21mi, California City at 22mi, Tehachapi at 23mi,

→ See also Northernmost airports in USA and Southernmost airports in USA

→ See also airports in USA

Hotels in Rosamond Skypark airport

Booking.com

aerial view of Rosamond Skypark airport

Airport code

Elevation : 736 m = 2415ft

→ See also Highest airports in USA and Lowest airports in USA

Runways

→ See also Airports with Longest runways in USA

Coming to Rosamond Skypark airport

Rent a car : Rentalcars

By train : Trip.com

By plane :

weather : sky clear at Rosamond

ciel dégagé
72°F

wind 12mph

Aviation weather for Rosamond Skypark airport L00 KL00

AWOS for Rosamond Skypark airport L00 KL00

Automated Weather Observing System (AWOS)

L00 110945Z AUTO 33003KT 09/02 A3000 RMK ADVISORY A01

AWOS for Rosamond Skypark airport L00 KL00

Automated Weather Observing System

L00 110945Z AUTO 33003KT 09/02 A3000 RMK ADVISORY A01

Around Rosamond Skypark airport at Rosamond (USA)

near

nearest airports to Rosamond Skypark airport at Rosamond (USA)

→ See also Former airports in USA

Data sources